createdAt,value
2017-08-11T00:00:01.486Z,15
2017-08-11T00:05:01.791Z,15
2017-08-11T00:10:01.479Z,15
2017-08-11T00:15:02.050Z,15
2017-08-11T00:20:01.786Z,15
2017-08-11T00:25:01.596Z,15
2017-08-11T00:30:01.354Z,15
2017-08-11T00:35:01.372Z,15
2017-08-11T00:40:02.123Z,15
2017-08-11T00:45:01.978Z,15
2017-08-11T00:50:01.667Z,15
2017-08-11T00:55:01.261Z,15
2017-08-11T01:00:01.993Z,15
2017-08-11T01:05:01.609Z,15
2017-08-11T01:10:01.347Z,15
2017-08-11T01:15:01.558Z,15
2017-08-11T01:20:01.320Z,15
2017-08-11T01:25:02.042Z,15
2017-08-11T01:30:01.825Z,15
2017-08-11T01:35:01.420Z,15
2017-08-11T01:40:01.395Z,15
2017-08-11T01:45:01.319Z,15
2017-08-11T01:50:02.031Z,15
2017-08-11T01:55:01.528Z,15
2017-08-11T02:00:01.571Z,15
2017-08-11T02:05:01.741Z,15
2017-08-11T02:10:01.833Z,15
2017-08-11T02:15:01.715Z,15
2017-08-11T02:20:01.876Z,15
2017-08-11T02:25:01.414Z,15
2017-08-11T02:30:01.953Z,15
2017-08-11T02:35:02.122Z,15
2017-08-11T02:40:02.141Z,15
2017-08-11T02:45:01.861Z,15
2017-08-11T02:50:01.829Z,15
2017-08-11T02:55:01.910Z,15
2017-08-11T03:00:02.030Z,15
2017-08-11T03:05:02.008Z,15
2017-08-11T03:10:01.772Z,15
2017-08-11T03:15:01.971Z,15
2017-08-11T03:20:01.668Z,15
2017-08-11T03:25:01.743Z,15
2017-08-11T03:30:01.813Z,15
2017-08-11T03:35:01.186Z,15
2017-08-11T03:40:01.251Z,15
2017-08-11T03:45:01.740Z,15
2017-08-11T03:50:01.706Z,15
2017-08-11T03:55:02.043Z,15
2017-08-11T04:00:01.957Z,15
2017-08-11T04:05:02.173Z,15
2017-08-11T04:10:01.337Z,15
2017-08-11T04:15:01.297Z,15
2017-08-11T04:20:02.113Z,15
2017-08-11T04:25:02.078Z,15
2017-08-11T04:30:01.895Z,15
2017-08-11T04:35:02.116Z,15
2017-08-11T04:40:01.905Z,15
2017-08-11T04:45:01.295Z,15
2017-08-11T04:50:01.461Z,15
2017-08-11T04:55:02.011Z,15
2017-08-11T05:00:02.137Z,15.1
2017-08-11T05:05:01.258Z,15.1
2017-08-11T05:10:01.219Z,15.2
2017-08-11T05:15:01.189Z,15.2
2017-08-11T05:20:02.082Z,15.2
2017-08-11T05:25:01.525Z,15.5
2017-08-11T05:30:01.694Z,15.5
2017-08-11T05:35:01.936Z,15.5
2017-08-11T05:40:01.796Z,15.5
2017-08-11T05:45:01.357Z,15.8
2017-08-11T05:50:01.462Z,15.8
2017-08-11T05:55:02.118Z,15.8
2017-08-11T06:00:01.206Z,15.8
2017-08-11T06:05:01.835Z,15.8
2017-08-11T06:10:01.184Z,16
2017-08-11T06:15:01.799Z,16
2017-08-11T06:20:01.524Z,16
2017-08-11T06:25:01.225Z,16
2017-08-11T06:30:01.270Z,16
2017-08-11T06:35:01.861Z,16
2017-08-11T06:40:01.688Z,16
2017-08-11T06:45:01.515Z,16
2017-08-11T06:50:01.653Z,16.2
2017-08-11T06:55:02.101Z,16.1
2017-08-11T07:00:01.179Z,16.1
2017-08-11T07:05:02.104Z,16.1
2017-08-11T07:10:01.295Z,16
2017-08-11T07:15:01.481Z,16
2017-08-11T07:20:01.265Z,16
2017-08-11T07:25:01.468Z,16
2017-08-11T07:30:01.511Z,16
2017-08-11T07:35:01.983Z,16
2017-08-11T07:40:01.806Z,16
2017-08-11T07:45:01.200Z,16
2017-08-11T07:50:01.231Z,16
2017-08-11T07:55:01.617Z,16.2
2017-08-11T08:00:01.689Z,16.2
2017-08-11T08:05:01.433Z,16.2
2017-08-11T08:10:01.300Z,16.2
2017-08-11T08:15:01.254Z,16.3
2017-08-11T08:20:02.149Z,16.3
2017-08-11T08:25:01.768Z,16.3
2017-08-11T08:30:01.912Z,16.3
2017-08-11T08:35:01.865Z,16.3
2017-08-11T08:40:01.898Z,16.4
2017-08-11T08:45:02.091Z,16.4
2017-08-11T08:50:01.983Z,16.4
2017-08-11T08:55:01.777Z,16.4
2017-08-11T09:00:01.634Z,16.4
2017-08-11T09:05:02.019Z,16.4
2017-08-11T09:10:01.478Z,16.4
2017-08-11T09:15:02.069Z,16.4
2017-08-11T09:20:01.575Z,16.4
2017-08-11T09:25:01.972Z,16.4
2017-08-11T09:30:01.284Z,16.4
2017-08-11T09:35:01.297Z,16.5
2017-08-11T09:40:02.101Z,16.5
2017-08-11T09:45:01.317Z,16.4
2017-08-11T09:50:01.295Z,16.4
2017-08-11T09:55:01.322Z,16.3
2017-08-11T10:00:01.822Z,16.3
2017-08-11T10:05:01.919Z,16.3
2017-08-11T10:10:01.982Z,16.3
2017-08-11T10:15:01.777Z,16.3
2017-08-11T10:20:01.523Z,16.2
2017-08-11T10:25:01.861Z,16.2
2017-08-11T10:30:01.333Z,16.1
2017-08-11T10:35:01.687Z,16.1
2017-08-11T10:40:01.437Z,16.1
2017-08-11T10:45:01.413Z,16
2017-08-11T10:50:01.345Z,16
2017-08-11T10:55:02.112Z,16
2017-08-11T11:00:01.391Z,16
2017-08-11T11:05:01.386Z,15.9
2017-08-11T11:10:02.189Z,15.8
2017-08-11T11:15:01.432Z,15.8
2017-08-11T11:20:01.206Z,15.8
2017-08-11T11:25:01.358Z,15.8
2017-08-11T11:30:01.796Z,15.8
2017-08-11T11:35:01.910Z,15.8
2017-08-11T11:40:01.666Z,15.8
2017-08-11T11:45:02.053Z,15.8
2017-08-11T11:50:02.027Z,15.7
2017-08-11T11:55:01.874Z,15.7
2017-08-11T12:00:01.222Z,15.7
2017-08-11T12:05:01.405Z,15.7
2017-08-11T12:10:02.169Z,15.7
2017-08-11T12:15:01.777Z,15.7
2017-08-11T12:20:01.610Z,15.7
2017-08-11T12:25:02.053Z,15.7
2017-08-11T12:30:01.679Z,15.7
2017-08-11T12:35:02.097Z,15.7
2017-08-11T12:40:01.834Z,15.6
2017-08-11T12:45:02.062Z,15.7
2017-08-11T12:50:01.904Z,15.7
2017-08-11T12:55:01.544Z,15.7
2017-08-11T13:00:02.034Z,15.8
2017-08-11T13:05:01.850Z,15.8
2017-08-11T13:10:02.251Z,15.8
2017-08-11T13:15:01.864Z,15.8
2017-08-11T13:20:01.815Z,15.8
2017-08-11T13:25:02.162Z,15.8
2017-08-11T13:30:01.752Z,15.8
2017-08-11T13:35:01.387Z,15.7
2017-08-11T13:40:02.230Z,15.7
2017-08-11T13:45:01.693Z,15.7
2017-08-11T13:50:02.247Z,15.8
2017-08-11T13:55:01.223Z,15.8
2017-08-11T14:00:01.947Z,15.8
2017-08-11T14:05:01.916Z,15.8
2017-08-11T14:10:02.151Z,15.8
2017-08-11T14:15:01.903Z,15.8
2017-08-11T14:20:01.770Z,15.8
2017-08-11T14:25:01.873Z,15.8
2017-08-11T14:30:02.045Z,15.8
2017-08-11T14:35:01.496Z,15.7
2017-08-11T14:40:01.175Z,15.7
2017-08-11T14:45:01.805Z,15.7
2017-08-11T14:50:01.695Z,15.7
2017-08-11T14:55:02.560Z,15.7
2017-08-11T15:00:01.580Z,15.7
2017-08-11T15:05:01.763Z,15.7
2017-08-11T15:10:01.778Z,15.7
2017-08-11T15:15:06.915Z,15.8
2017-08-11T15:20:01.513Z,15.8
2017-08-11T15:25:01.329Z,15.8
2017-08-11T15:30:01.321Z,15.9
2017-08-11T15:35:01.583Z,15.9
2017-08-11T15:40:01.258Z,15.9
2017-08-11T15:45:01.427Z,15.9
2017-08-11T15:50:01.366Z,15.9
2017-08-11T15:55:02.044Z,15.9
2017-08-11T16:00:02.137Z,15.9
2017-08-11T16:05:01.750Z,15.9
2017-08-11T16:10:01.633Z,15.9
2017-08-11T16:15:01.801Z,15.8
2017-08-11T16:20:01.507Z,15.8
2017-08-11T16:25:01.225Z,15.8
2017-08-11T16:30:01.277Z,15.8
2017-08-11T16:35:01.989Z,15.8
2017-08-11T16:40:01.742Z,15.9
2017-08-11T16:45:01.826Z,15.9
2017-08-11T16:50:01.809Z,15.8
2017-08-11T16:55:02.082Z,15.8
2017-08-11T17:00:01.332Z,15.8
2017-08-11T17:05:01.835Z,15.8
2017-08-11T17:10:01.600Z,15.8
2017-08-11T17:15:01.561Z,15.7
2017-08-11T17:20:01.815Z,15.7
2017-08-11T17:25:01.875Z,15.7
2017-08-11T17:30:01.890Z,15.7
2017-08-11T17:35:01.958Z,15.6
2017-08-11T17:40:01.600Z,15.6
2017-08-11T17:45:01.799Z,15.6
2017-08-11T17:50:01.276Z,15.6
2017-08-11T17:55:01.426Z,15.6
2017-08-11T18:00:01.764Z,15.6
2017-08-11T18:05:01.497Z,15.5
2017-08-11T18:10:01.512Z,15.5
2017-08-11T18:15:01.311Z,15.5
2017-08-11T18:20:01.368Z,15.5
2017-08-11T18:25:01.824Z,15.5
2017-08-11T18:30:01.870Z,15.5
2017-08-11T18:35:01.376Z,15.4
2017-08-11T18:40:01.896Z,15.4
2017-08-11T18:45:01.464Z,15.3
2017-08-11T18:50:01.503Z,15.3
2017-08-11T18:55:01.451Z,15.3
2017-08-11T19:00:01.633Z,15.3
2017-08-11T19:05:01.305Z,15.2
2017-08-11T19:10:01.455Z,15.2
2017-08-11T19:15:01.412Z,15.2
2017-08-11T19:20:01.874Z,15.2
2017-08-11T19:25:02.033Z,15.2
2017-08-11T19:30:01.320Z,15.2
2017-08-11T19:35:02.151Z,15.2
2017-08-11T19:40:01.407Z,15.2
2017-08-11T19:45:01.596Z,15.1
2017-08-11T19:50:01.432Z,15
2017-08-11T19:55:01.775Z,15
2017-08-11T20:00:01.285Z,15
2017-08-11T20:05:01.518Z,15
2017-08-11T20:10:02.165Z,15
2017-08-11T20:15:02.064Z,15
2017-08-11T20:20:01.587Z,15
2017-08-11T20:25:01.599Z,15
2017-08-11T20:30:01.917Z,15
2017-08-11T20:35:01.573Z,15
2017-08-11T20:40:01.950Z,15
2017-08-11T20:45:01.538Z,15
2017-08-11T20:50:02.268Z,15
2017-08-11T20:55:01.452Z,15
2017-08-11T21:00:01.753Z,15
2017-08-11T21:05:01.871Z,15
2017-08-11T21:10:02.487Z,15
2017-08-11T21:15:01.530Z,15
2017-08-11T21:20:01.981Z,15
2017-08-11T21:25:01.589Z,15
2017-08-11T21:30:01.670Z,15
2017-08-11T21:35:01.721Z,15
2017-08-11T21:40:01.790Z,15
2017-08-11T21:45:01.636Z,15
2017-08-11T21:50:01.833Z,15
2017-08-11T21:55:01.504Z,15
2017-08-11T22:00:01.695Z,15
2017-08-11T22:05:01.983Z,15
2017-08-11T22:10:01.331Z,15
2017-08-11T22:15:01.310Z,15
2017-08-11T22:20:02.123Z,15
2017-08-11T22:25:01.906Z,15
2017-08-11T22:30:02.149Z,15
2017-08-11T22:35:01.683Z,15
2017-08-11T22:40:01.536Z,15
2017-08-11T22:45:01.658Z,15
2017-08-11T22:50:01.366Z,15
2017-08-11T22:55:01.316Z,15
2017-08-11T23:00:02.012Z,15
2017-08-11T23:05:01.490Z,15
2017-08-11T23:10:01.196Z,15
2017-08-11T23:15:01.842Z,15
2017-08-11T23:20:01.575Z,15
2017-08-11T23:25:01.395Z,15
2017-08-11T23:30:02.114Z,15
2017-08-11T23:35:01.980Z,15
2017-08-11T23:40:01.774Z,15
2017-08-11T23:45:02.052Z,15
2017-08-11T23:50:01.781Z,15
2017-08-11T23:55:01.984Z,15
